logo dgac
Lunes 27 de Septiembre del 2021
Buscar por aerodromo o helipuerto
Ingrese nombre de aeródromo, localidad o designador OACI:
TAF: TAF SCCY 261036Z 2612/2624 03005KT 9999 SCT040 TN01/2612Z TX10/2618Z BECMG 2614/2616 28010KT
TAF del 26/09/2021 a las 10:36 UTC
Para mayor información visite www.meteochile.cl
Período de validez: desde el 26 a las 12:00 UTC hasta el 26 a las 24:00 UTC
Viento: dirección 030 grados, velocidad 5 nudos
Visibilidad: 10 km o más
Nubes: Nubosidad parcial a 4000 pies sobre el nivel del aeródromo
Temperatura mínima: 1ºC el 26 a las 12:00 UTC
Temperatura máxima: 10ºC el 26 a las 18:00 UTC
Se espera un cambio entre las 14:00 UTC del 26 y las 16:00 UTC del 26, :
Viento: dirección 280 grados, velocidad 10 nudos